Time;durP1;ratioP1;P1;durP2;ratioP2;P2;SDS_P1;SDS_P2;PMS_P1;PMS_P2;Temp;Humidity;BMP_temperature;BMP_pressure;BME280_temperature;BME280_humidity;BME280_pressure;Samples;Min_cycle;Max_cycle;Signal;HPM_P1;HPM_P2
2022/10/16 05:02:36;;;;;;;4.50;2.28;;;;;;;;;;5948705;23;20425;-91
2022/10/16 05:05:25;;;;;;;4.00;2.30;;;;;;;;;;5044533;28;20180;-91
2022/10/16 05:08:14;;;;;;;5.43;2.83;;;;;;;;;;5037993;28;20459;-90
2022/10/16 05:11:04;;;;;;;2.77;2.57;;;;;;;;;;5054516;28;20435;-91
2022/10/16 05:13:55;;;;;;;4.13;2.73;;;;;;;;;;5026246;28;20468;-92
2022/10/16 05:16:44;;;;;;;5.10;3.30;;;;;;;;;;5030096;28;20446;-92
2022/10/16 05:19:38;;;;;;;4.93;3.03;;;;;;;;;;5029717;28;20451;-90
2022/10/16 05:22:27;;;;;;;4.50;3.10;;;;;;;;;;5033556;28;20452;-91
2022/10/16 05:25:17;;;;;;;4.37;2.90;;;;;;;;;;5031214;28;20471;-91
2022/10/16 05:28:06;;;;;;;3.70;2.93;;;;;;;;;;5032831;28;20483;-91
2022/10/16 05:30:59;;;;;;;4.23;2.60;;;;;;;;;;5032975;28;20661;-91
2022/10/16 05:33:48;;;;;;;4.75;3.20;;;;;;;;;;5036029;28;20528;-91
2022/10/16 05:39:42;;;;;;;3.93;2.90;;;;;;;;;;5041596;28;20451;-91
2022/10/16 05:42:32;;;;;;;5.33;3.50;;;;;;;;;;5038183;28;20468;-92
2022/10/16 05:45:29;;;;;;;5.10;2.80;;;;;;;;;;5030958;28;20463;-90
2022/10/16 05:48:18;;;;;;;3.47;2.80;;;;;;;;;;5049133;28;20520;-92
2022/10/16 05:51:07;;;;;;;3.03;2.83;;;;;;;;;;5038539;28;20427;-90
2022/10/16 05:54:00;;;;;;;4.83;2.63;;;;;;;;;;5030475;28;20477;-92
2022/10/16 05:59:52;;;;;;;3.25;2.47;;;;;;;;;;5031120;28;20457;-91
2022/10/16 06:02:41;;;;;;;2.90;2.57;;;;;;;;;;5034654;28;20234;-93
2022/10/16 06:05:31;;;;;;;4.30;2.57;;;;;;;;;;5020979;28;21958;-91
2022/10/16 06:08:25;;;;;;;3.13;2.23;;;;;;;;;;5027451;28;20508;-91
2022/10/16 06:11:17;;;;;;;4.72;2.60;;;;;;;;;;5042687;28;20459;-91
2022/10/16 06:14:08;;;;;;;3.03;2.60;;;;;;;;;;5035304;28;20229;-90
2022/10/16 06:16:59;;;;;;;4.60;2.67;;;;;;;;;;5036412;28;20483;-92
2022/10/16 06:22:55;;;;;;;3.97;2.90;;;;;;;;;;5029233;28;20456;-90
2022/10/16 06:25:44;;;;;;;3.55;2.70;;;;;;;;;;5038299;28;20495;-92
2022/10/16 06:28:49;;;;;;;3.60;2.40;;;;;;;;;;5032917;28;20200;-90
2022/10/16 06:31:39;;;;;;;3.57;2.53;;;;;;;;;;5036206;28;20496;-91
2022/10/16 06:34:28;;;;;;;3.30;2.83;;;;;;;;;;5028077;28;21028;-92
2022/10/16 06:37:19;;;;;;;3.93;2.53;;;;;;;;;;5031133;28;20528;-91
2022/10/16 06:40:10;;;;;;;5.07;2.87;;;;;;;;;;5032567;28;20472;-92
2022/10/16 06:43:00;;;;;;;3.60;2.50;;;;;;;;;;5032461;28;20476;-91
2022/10/16 06:45:54;;;;;;;4.60;2.93;;;;;;;;;;5037266;28;20453;-92
2022/10/16 06:48:44;;;;;;;2.57;2.20;;;;;;;;;;5036055;28;20433;-92
2022/10/16 06:51:35;;;;;;;3.67;2.50;;;;;;;;;;5030684;28;20580;-91
2022/10/16 06:54:29;;;;;;;3.20;2.83;;;;;;;;;;5032666;28;20545;-92
2022/10/16 06:57:30;;;;;;;3.03;2.73;;;;;;;;;;5025368;28;20448;-92
2022/10/16 07:00:20;;;;;;;3.73;2.50;;;;;;;;;;5029955;28;20508;-93
2022/10/16 07:03:10;;;;;;;4.90;2.97;;;;;;;;;;5031735;28;20543;-89
2022/10/16 07:06:04;;;;;;;4.13;3.00;;;;;;;;;;5033012;28;20454;-92
2022/10/16 07:08:55;;;;;;;3.33;3.03;;;;;;;;;;5036609;28;20453;-91
2022/10/16 07:11:46;;;;;;;3.20;2.90;;;;;;;;;;5029365;28;20452;-89
2022/10/16 07:14:36;;;;;;;3.47;3.17;;;;;;;;;;5030141;28;20441;-91
2022/10/16 07:17:27;;;;;;;3.37;3.00;;;;;;;;;;5026212;28;20434;-91
2022/10/16 07:20:21;;;;;;;4.73;3.30;;;;;;;;;;5024626;28;20433;-92
2022/10/16 07:23:11;;;;;;;4.20;2.70;;;;;;;;;;5033408;28;20476;-90
2022/10/16 07:26:00;;;;;;;3.83;3.37;;;;;;;;;;5031119;28;20472;-91
2022/10/16 07:28:52;;;;;;;3.43;3.13;;;;;;;;;;5031974;28;20456;-91
2022/10/16 07:31:42;;;;;;;3.20;2.90;;;;;;;;;;5035309;28;20448;-91
2022/10/16 07:34:32;;;;;;;4.20;3.43;;;;;;;;;;5035523;28;20484;-92
2022/10/16 07:40:35;;;;;;;5.00;3.27;;;;;;;;;;5030837;28;20474;-93
2022/10/16 07:43:25;;;;;;;3.93;3.53;;;;;;;;;;5036677;28;20472;-92
2022/10/16 07:46:14;;;;;;;5.33;4.00;;;;;;;;;;5030267;28;20444;-91
2022/10/16 07:49:03;;;;;;;3.80;3.40;;;;;;;;;;5036002;28;20516;-92
2022/10/16 07:51:54;;;;;;;3.40;3.10;;;;;;;;;;5031991;28;20455;-92
2022/10/16 07:54:45;;;;;;;4.23;3.30;;;;;;;;;;5032417;28;20448;-91
2022/10/16 07:57:34;;;;;;;4.83;3.30;;;;;;;;;;5036529;28;20460;-92
2022/10/16 08:00:26;;;;;;;3.73;3.30;;;;;;;;;;5026671;28;20496;-91
2022/10/16 08:03:15;;;;;;;3.20;3.00;;;;;;;;;;5031321;28;20551;-90
2022/10/16 08:06:05;;;;;;;3.23;2.97;;;;;;;;;;5041717;28;20440;-91
2022/10/16 08:08:54;;;;;;;3.43;3.00;;;;;;;;;;5030144;28;20488;-92
2022/10/16 08:11:59;;;;;;;3.67;3.37;;;;;;;;;;5034477;28;20436;-93
2022/10/16 08:15:08;;;;;;;4.20;3.80;;;;;;;;;;5035270;28;20445;-91
2022/10/16 08:18:14;;;;;;;3.80;3.50;;;;;;;;;;5035202;28;20529;-93
2022/10/16 08:21:06;;;;;;;4.37;3.83;;;;;;;;;;5031095;28;20500;-91
2022/10/16 08:27:02;;;;;;;4.17;3.77;;;;;;;;;;5029123;28;20468;-92
2022/10/16 08:29:58;;;;;;;3.97;3.63;;;;;;;;;;5030915;28;20520;-92
2022/10/16 08:32:58;;;;;;;4.90;4.40;;;;;;;;;;5029311;28;20540;-92
2022/10/16 08:35:54;;;;;;;3.43;3.13;;;;;;;;;;5028225;28;20448;-93
2022/10/16 08:38:45;;;;;;;4.10;3.67;;;;;;;;;;5023099;28;20505;-93
2022/10/16 08:41:50;;;;;;;4.53;3.40;;;;;;;;;;5038913;28;20434;-93
2022/10/16 08:45:06;;;;;;;3.50;3.20;;;;;;;;;;5034451;28;20511;-93
2022/10/16 08:48:14;;;;;;;3.17;2.97;;;;;;;;;;5033380;28;20468;-93
2022/10/16 08:51:05;;;;;;;3.50;3.20;;;;;;;;;;5028472;28;20520;-92
2022/10/16 08:53:56;;;;;;;3.60;3.30;;;;;;;;;;5027390;28;20622;-90
2022/10/16 08:56:45;;;;;;;3.63;3.20;;;;;;;;;;5034276;28;20443;-91
2022/10/16 08:59:41;;;;;;;4.83;3.40;;;;;;;;;;5034194;28;20477;-92
2022/10/16 09:02:50;;;;;;;4.17;3.40;;;;;;;;;;5035916;28;20543;-91
2022/10/16 09:05:55;;;;;;;5.30;2.90;;;;;;;;;;5038397;28;20443;-92
2022/10/16 09:08:59;;;;;;;4.10;2.83;;;;;;;;;;5012781;28;20472;-90
2022/10/16 09:18:37;;;;;;;3.40;2.90;;;;;;;;;;5032880;28;20459;-91
2022/10/16 09:21:44;;;;;;;2.63;2.43;;;;;;;;;;5033489;28;20444;-92
2022/10/16 09:40:52;;;;;;;2.63;2.10;;;;;;;;;;5079788;28;20468;-91
2022/10/16 09:43:59;;;;;;;3.27;2.17;;;;;;;;;;5074500;28;20654;-91
2022/10/16 09:46:49;;;;;;;2.97;1.80;;;;;;;;;;5076594;28;20476;-92
2022/10/16 09:49:41;;;;;;;4.33;2.23;;;;;;;;;;5101930;28;20429;-89
2022/10/16 09:52:30;;;;;;;3.17;1.80;;;;;;;;;;5108643;28;20450;-89
2022/10/16 09:55:21;;;;;;;2.08;1.88;;;;;;;;;;5111689;28;20460;-90
2022/10/16 09:58:18;;;;;;;3.33;1.47;;;;;;;;;;5100180;28;20202;-92
2022/10/16 10:01:07;;;;;;;2.60;1.70;;;;;;;;;;5096734;28;20978;-92
2022/10/16 10:04:02;;;;;;;3.53;2.00;;;;;;;;;;5093562;28;20457;-92
2022/10/16 10:06:57;;;;;;;2.13;1.92;;;;;;;;;;5099200;28;20464;-92
2022/10/16 10:09:49;;;;;;;4.03;1.97;;;;;;;;;;5096676;28;20195;-92
2022/10/16 10:12:57;;;;;;;4.20;1.90;;;;;;;;;;5101978;28;20472;-93
2022/10/16 10:15:47;;;;;;;1.80;1.60;;;;;;;;;;5088429;28;20960;-93
2022/10/16 10:18:38;;;;;;;3.57;2.00;;;;;;;;;;5093921;28;20444;-93
2022/10/16 10:21:27;;;;;;;5.67;2.23;;;;;;;;;;5096168;28;20478;-93
2022/10/16 10:24:18;;;;;;;2.83;1.60;;;;;;;;;;5097283;28;20523;-91
2022/10/16 10:27:12;;;;;;;2.80;2.20;;;;;;;;;;5086581;28;20557;-92
2022/10/16 10:30:10;;;;;;;4.33;1.97;;;;;;;;;;5085889;28;20909;-91
2022/10/16 10:33:10;;;;;;;3.70;2.63;;;;;;;;;;5100026;28;20477;-92
2022/10/16 10:36:02;;;;;;;5.30;2.43;;;;;;;;;;5101409;28;20461;-92
2022/10/16 10:38:53;;;;;;;3.33;2.13;;;;;;;;;;5102151;28;20437;-91
2022/10/16 10:42:03;;;;;;;2.53;1.83;;;;;;;;;;5101903;28;20467;-92
2022/10/16 10:45:00;;;;;;;2.17;1.47;;;;;;;;;;5102053;28;20448;-92
2022/10/16 10:48:00;;;;;;;3.45;1.42;;;;;;;;;;5082532;28;20481;-93
2022/10/16 10:50:55;;;;;;;1.40;1.30;;;;;;;;;;5082040;28;20196;-93
2022/10/16 10:53:56;;;;;;;2.07;1.50;;;;;;;;;;5074650;28;20606;-93
2022/10/16 10:56:48;;;;;;;3.40;1.30;;;;;;;;;;5089863;28;20456;-93
2022/10/16 10:59:46;;;;;;;2.07;1.60;;;;;;;;;;5081788;28;20443;-93
2022/10/16 11:02:50;;;;;;;2.90;1.50;;;;;;;;;;5065932;28;20525;-93
2022/10/16 11:13:05;;;;;;;1.90;1.23;;;;;;;;;;5063547;28;20497;-94
2022/10/16 11:16:24;;;;;;;1.53;1.40;;;;;;;;;;5069023;28;20546;-93
2022/10/16 11:37:42;;;;;;;3.10;0.90;;;;;;;;;;5077320;28;20443;-95
2022/10/16 12:38:10;;;;;;;1.83;1.10;;;;;;;;;;5034014;28;20488;-95
2022/10/16 12:41:08;;;;;;;3.07;1.27;;;;;;;;;;4980851;28;20509;-94
2022/10/16 12:44:32;;;;;;;2.35;1.17;;;;;;;;;;5047864;28;20591;-94
2022/10/16 12:51:21;;;;;;;1.70;1.10;;;;;;;;;;5046508;28;20475;-95
2022/10/16 12:57:31;;;;;;;4.27;1.30;;;;;;;;;;5024422;28;20472;-94
2022/10/16 13:00:32;;;;;;;2.83;1.00;;;;;;;;;;5040509;28;20455;-93
2022/10/16 13:03:50;;;;;;;2.17;1.10;;;;;;;;;;5039554;28;20470;-94
2022/10/16 13:07:01;;;;;;;3.77;1.63;;;;;;;;;;5045375;28;20483;-93
2022/10/16 13:23:25;;;;;;;1.20;0.90;;;;;;;;;;5049302;28;20456;-95
2022/10/16 13:26:32;;;;;;;2.30;1.30;;;;;;;;;;5048030;28;20478;-94
2022/10/16 13:35:50;;;;;;;2.37;1.30;;;;;;;;;;5044918;28;20471;-93
2022/10/16 14:34:56;;;;;;;3.73;1.43;;;;;;;;;;6165078;22;1163374;-93
2022/10/16 15:01:35;;;;;;;2.13;1.63;;;;;;;;;;6169943;23;20437;-93
2022/10/16 15:24:54;;;;;;;2.70;1.57;;;;;;;;;;6156010;23;20444;-92
2022/10/16 15:28:07;;;;;;;3.03;1.70;;;;;;;;;;6153632;23;20501;-95
2022/10/16 15:31:11;;;;;;;2.90;1.50;;;;;;;;;;6158010;23;20401;-94
2022/10/16 16:36:49;;;;;;;10.73;9.57;;;;;;;;;;6147711;23;20418;-93
2022/10/16 16:56:47;;;;;;;2.13;1.60;;;;;;;;;;6147208;23;20453;-94
2022/10/16 16:59:56;;;;;;;3.30;1.73;;;;;;;;;;6143792;23;20411;-94
2022/10/16 23:10:08;;;;;;;9.10;7.83;;;;;;;;;;5173596;27;20298;-91
2022/10/16 23:12:57;;;;;;;8.13;7.27;;;;;;;;;;5134768;28;21001;-92
2022/10/16 23:18:49;;;;;;;8.30;7.50;;;;;;;;;;5142332;28;20558;-92
2022/10/16 23:21:40;;;;;;;10.90;8.37;;;;;;;;;;5140533;28;20444;-92
2022/10/16 23:24:31;;;;;;;8.07;7.33;;;;;;;;;;5135640;28;20448;-92
2022/10/16 23:27:42;;;;;;;7.93;7.10;;;;;;;;;;5148061;27;20475;-93
2022/10/16 23:30:37;;;;;;;7.73;7.03;;;;;;;;;;5146692;27;20470;-89
2022/10/16 23:33:29;;;;;;;8.20;6.90;;;;;;;;;;5151507;27;20431;-90
2022/10/16 23:36:20;;;;;;;8.63;7.47;;;;;;;;;;5150618;27;20514;-92
2022/10/16 23:39:12;;;;;;;8.47;7.53;;;;;;;;;;5161862;27;20473;-91
2022/10/16 23:42:05;;;;;;;7.60;6.87;;;;;;;;;;5148168;27;20432;-91
2022/10/16 23:44:54;;;;;;;8.40;7.20;;;;;;;;;;5150623;27;20451;-93
2022/10/16 23:47:49;;;;;;;7.17;6.53;;;;;;;;;;5137519;28;20479;-92
2022/10/16 23:50:45;;;;;;;7.70;6.20;;;;;;;;;;5142447;27;20555;-93
2022/10/16 23:53:39;;;;;;;7.07;6.47;;;;;;;;;;5125446;28;20458;-91
2022/10/16 23:56:27;;;;;;;7.57;6.67;;;;;;;;;;5145428;27;20530;-93
2022/10/16 23:59:18;;;;;;;7.20;6.50;;;;;;;;;;5142225;27;20480;-93
